Time;durP1;ratioP1;P1;durP2;ratioP2;P2;SDS_P1;SDS_P2;PMS_P1;PMS_P2;Temp;Humidity;BMP_temperature;BMP_pressure;BME280_temperature;BME280_humidity;BME280_pressure;Samples;Min_cycle;Max_cycle;Signal;HPM_P1;HPM_P2
2021/01/02 00:00:51;;;;;;;41.77;24.20;;;3.20;99.90;;;;;;5070376;28;20655;-62
2021/01/02 00:03:20;;;;;;;40.57;23.93;;;3.20;99.90;;;;;;5052452;28;20186;-63
2021/01/02 00:06:01;;;;;;;42.93;23.40;;;3.20;99.90;;;;;;5052512;28;20178;-64
2021/01/02 00:08:28;;;;;;;44.27;23.40;;;3.30;99.90;;;;;;5072130;28;20185;-62
2021/01/02 00:11:19;;;;;;;44.13;24.30;;;3.20;99.90;;;;;;5070665;28;20280;-63
2021/01/02 00:14:20;;;;;;;40.27;23.57;;;3.30;99.90;;;;;;5052300;28;20186;-63
2021/01/02 00:17:08;;;;;;;38.77;21.93;;;3.30;99.90;;;;;;5060679;28;20233;-63
2021/01/02 00:19:48;;;;;;;39.70;22.23;;;3.30;99.90;;;;;;5072174;28;20162;-63
2021/01/02 00:22:40;;;;;;;41.17;23.53;;;3.30;99.90;;;;;;5051995;28;20316;-64
2021/01/02 00:25:12;;;;;;;41.90;23.83;;;3.30;99.90;;;;;;5052672;28;20183;-63
2021/01/02 00:27:40;;;;;;;41.77;24.20;;;3.40;99.90;;;;;;5071917;28;20197;-63
2021/01/02 00:30:08;;;;;;;39.37;24.37;;;3.30;99.90;;;;;;5070468;28;20295;-64
2021/01/02 00:32:55;;;;;;;39.33;22.43;;;3.30;99.90;;;;;;5051816;28;20201;-64
2021/01/02 00:35:26;;;;;;;37.67;23.60;;;3.30;99.90;;;;;;5054122;28;20644;-63
2021/01/02 00:38:01;;;;;;;38.73;21.77;;;3.30;99.90;;;;;;5072068;28;20185;-62
2021/01/02 00:40:28;;;;;;;41.97;21.57;;;3.30;99.90;;;;;;5068643;28;20173;-64
2021/01/02 00:42:54;;;;;;;39.00;22.90;;;3.20;99.90;;;;;;5051782;28;20276;-63
2021/01/02 00:45:22;;;;;;;38.90;22.40;;;3.20;99.90;;;;;;5071908;28;20608;-63
2021/01/02 00:47:49;;;;;;;43.10;22.80;;;3.20;99.90;;;;;;5071590;28;20209;-64
2021/01/02 00:50:16;;;;;;;42.03;21.90;;;3.20;99.90;;;;;;5051908;28;20182;-64
2021/01/02 00:52:45;;;;;;;43.10;23.87;;;3.20;99.90;;;;;;5051643;28;20199;-64
2021/01/02 00:55:25;;;;;;;33.50;21.23;;;3.10;99.90;;;;;;5069283;28;20228;-63
2021/01/02 00:58:22;;;;;;;44.87;22.67;;;3.10;99.90;;;;;;5071530;28;20751;-63
2021/01/02 01:01:01;;;;;;;40.30;21.17;;;3.10;99.90;;;;;;5051368;28;20254;-63
2021/01/02 01:04:00;;;;;;;42.43;22.33;;;3.10;99.90;;;;;;5053882;28;20181;-63
2021/01/02 01:06:29;;;;;;;36.00;20.57;;;3.10;99.90;;;;;;5071337;28;20557;-64
2021/01/02 01:09:03;;;;;;;37.27;21.60;;;3.10;99.90;;;;;;5065135;28;20186;-64
2021/01/02 01:11:35;;;;;;;38.17;20.93;;;3.10;99.90;;;;;;5055481;28;20197;-63
2021/01/02 01:14:03;;;;;;;39.33;24.07;;;3.10;99.90;;;;;;5071336;28;20647;-64
2021/01/02 01:16:38;;;;;;;37.20;21.53;;;3.10;99.90;;;;;;5067031;28;20271;-64
2021/01/02 01:19:04;;;;;;;34.30;20.13;;;3.10;99.90;;;;;;5051292;28;20201;-64
2021/01/02 01:21:35;;;;;;;39.30;23.10;;;3.00;99.90;;;;;;5054003;28;20170;-64
2021/01/02 01:24:13;;;;;;;41.17;23.53;;;2.90;99.90;;;;;;5071345;28;20170;-64
2021/01/02 01:27:20;;;;;;;35.10;20.70;;;2.90;99.90;;;;;;5070268;28;20258;-64
2021/01/02 01:29:49;;;;;;;37.77;20.93;;;2.80;99.90;;;;;;5057416;28;20170;-64
2021/01/02 01:32:22;;;;;;;36.73;20.93;;;2.70;99.90;;;;;;5075039;28;20229;-63
2021/01/02 01:34:53;;;;;;;36.87;21.40;;;2.60;99.90;;;;;;5073400;28;20166;-63
2021/01/02 01:37:24;;;;;;;41.33;20.70;;;2.40;99.90;;;;;;5055200;28;20183;-64
2021/01/02 01:39:51;;;;;;;35.57;20.00;;;2.30;99.90;;;;;;5062076;28;20178;-63
2021/01/02 01:42:18;;;;;;;35.93;20.90;;;2.10;99.90;;;;;;5074883;28;20351;-63
2021/01/02 01:45:12;;;;;;;34.43;20.33;;;2.00;99.90;;;;;;5069401;28;20186;-64
2021/01/02 01:47:42;;;;;;;40.23;21.57;;;1.90;99.90;;;;;;5054942;28;20214;-63
2021/01/02 01:50:24;;;;;;;40.77;20.17;;;1.70;99.90;;;;;;5062512;28;20582;-64
2021/01/02 01:52:50;;;;;;;37.80;21.37;;;1.50;99.90;;;;;;5074915;28;20202;-64
2021/01/02 01:55:26;;;;;;;38.37;20.87;;;1.40;99.90;;;;;;5065784;28;20182;-63
2021/01/02 01:57:55;;;;;;;36.93;21.57;;;1.40;99.90;;;;;;5054754;28;20183;-64
2021/01/02 02:00:21;;;;;;;40.63;21.93;;;1.20;99.90;;;;;;5066156;28;20178;-62
2021/01/02 02:02:46;;;;;;;41.30;22.70;;;1.10;99.90;;;;;;5074972;28;20178;-63
2021/01/02 02:05:14;;;;;;;46.20;22.93;;;1.10;99.90;;;;;;5063867;28;20545;-64
2021/01/02 02:08:00;;;;;;;43.60;23.03;;;1.00;99.90;;;;;;5059147;28;20219;-62
2021/01/02 02:10:41;;;;;;;45.97;21.83;;;1.10;99.90;;;;;;5074221;28;20178;-62
2021/01/02 02:13:11;;;;;;;45.93;24.97;;;1.20;99.90;;;;;;5066227;28;20588;-63
2021/01/02 02:15:48;;;;;;;53.03;25.60;;;1.40;99.90;;;;;;5054595;28;20221;-63
2021/01/02 02:18:30;;;;;;;50.90;24.03;;;1.40;99.90;;;;;;5062236;28;20194;-63
2021/01/02 02:20:59;;;;;;;45.27;23.93;;;1.50;99.90;;;;;;5073584;28;20253;-63
2021/01/02 02:23:35;;;;;;;54.83;25.37;;;1.60;99.90;;;;;;5057360;28;20179;-63
2021/01/02 02:26:26;;;;;;;48.03;23.70;;;1.70;99.90;;;;;;5054320;28;20263;-63
2021/01/02 02:29:13;;;;;;;56.50;26.93;;;1.90;99.90;;;;;;5073933;28;20181;-63
2021/01/02 02:31:46;;;;;;;50.30;24.43;;;2.00;99.90;;;;;;5071280;28;20292;-64
2021/01/02 02:34:13;;;;;;;52.80;25.03;;;2.00;99.90;;;;;;5052693;28;20175;-63
2021/01/02 02:36:40;;;;;;;49.27;24.83;;;2.10;99.90;;;;;;5054271;28;20194;-64
2021/01/02 02:39:09;;;;;;;46.20;23.60;;;2.20;99.90;;;;;;5073732;28;20221;-63
2021/01/02 02:41:58;;;;;;;50.97;24.97;;;2.30;99.90;;;;;;5074414;28;20257;-62
2021/01/02 02:44:33;;;;;;;46.37;22.47;;;2.20;99.90;;;;;;5053797;28;20175;-63
2021/01/02 02:47:00;;;;;;;48.83;23.30;;;2.40;99.90;;;;;;5055558;28;20205;-63
2021/01/02 02:49:31;;;;;;;47.20;22.53;;;2.40;99.90;;;;;;5072124;28;20189;-63
2021/01/02 02:52:35;;;;;;;48.63;25.10;;;2.40;99.90;;;;;;5071873;28;20198;-63
2021/01/02 02:55:02;;;;;;;45.47;24.30;;;2.50;99.90;;;;;;5053750;28;20527;-63
2021/01/02 02:57:33;;;;;;;49.93;24.90;;;2.60;99.90;;;;;;5058621;28;20189;-63
2021/01/02 02:59:59;;;;;;;49.27;24.30;;;2.60;99.90;;;;;;5070012;28;20170;-63
2021/01/02 03:02:26;;;;;;;45.50;23.70;;;2.60;99.90;;;;;;5053554;28;20544;-63
2021/01/02 03:04:52;;;;;;;47.57;24.93;;;2.50;99.90;;;;;;5055135;28;20223;-64
2021/01/02 03:07:18;;;;;;;43.83;23.00;;;2.50;99.90;;;;;;5073359;28;20273;-64
2021/01/02 03:09:45;;;;;;;47.90;24.40;;;2.50;99.90;;;;;;5061442;28;20691;-62
2021/01/02 03:12:10;;;;;;;44.67;23.03;;;2.60;99.90;;;;;;5052997;28;20341;-64
2021/01/02 03:14:36;;;;;;;50.13;23.63;;;2.70;99.90;;;;;;5063724;28;20249;-63
2021/01/02 03:17:02;;;;;;;42.30;22.40;;;2.70;99.90;;;;;;5073082;28;20697;-64
2021/01/02 03:19:29;;;;;;;45.90;23.07;;;2.60;99.90;;;;;;5064145;28;20524;-63
2021/01/02 03:21:54;;;;;;;48.57;23.70;;;2.70;99.90;;;;;;5052885;28;20209;-63
2021/01/02 03:24:20;;;;;;;48.03;22.93;;;2.70;99.90;;;;;;5060107;28;20174;-63
2021/01/02 03:26:46;;;;;;;45.67;22.40;;;2.70;99.90;;;;;;5073138;28;20205;-64
2021/01/02 03:29:12;;;;;;;43.77;22.83;;;2.70;99.90;;;;;;5071192;28;20227;-62
2021/01/02 03:31:38;;;;;;;42.37;23.63;;;2.70;99.90;;;;;;5072792;28;20202;-62
2021/01/02 03:34:04;;;;;;;47.13;23.43;;;2.80;99.90;;;;;;5061881;28;20186;-62
2021/01/02 03:36:30;;;;;;;43.50;22.93;;;2.80;99.90;;;;;;5052836;28;20194;-63
2021/01/02 03:38:57;;;;;;;44.87;23.23;;;2.80;99.90;;;;;;5061701;28;20212;-62
2021/01/02 03:41:24;;;;;;;52.37;23.73;;;2.80;99.90;;;;;;5072545;28;20178;-63
2021/01/02 03:43:50;;;;;;;44.73;24.37;;;2.80;99.90;;;;;;5065045;28;20539;-64
2021/01/02 03:46:16;;;;;;;44.03;23.70;;;2.70;99.90;;;;;;5052546;28;20190;-62
2021/01/02 03:48:42;;;;;;;46.60;22.33;;;2.80;99.90;;;;;;5058784;28;20181;-63
2021/01/02 03:51:08;;;;;;;40.73;22.83;;;2.80;99.90;;;;;;5071638;28;20659;-63
2021/01/02 03:53:33;;;;;;;43.33;23.27;;;2.80;99.90;;;;;;5068193;28;20262;-64
2021/01/02 03:55:59;;;;;;;43.23;24.10;;;2.80;99.90;;;;;;5054198;28;20654;-63
2021/01/02 03:58:24;;;;;;;43.60;22.83;;;2.70;99.90;;;;;;5072266;28;20198;-63
2021/01/02 04:00:50;;;;;;;45.40;22.80;;;2.70;99.90;;;;;;5054867;28;20186;-64
2021/01/02 04:03:15;;;;;;;45.30;22.93;;;2.80;99.90;;;;;;5052587;28;20173;-63
2021/01/02 04:05:50;;;;;;;43.33;23.53;;;2.80;99.90;;;;;;5067546;28;20185;-64
2021/01/02 04:08:15;;;;;;;51.13;24.17;;;2.90;99.90;;;;;;5072186;28;20284;-63
2021/01/02 04:10:41;;;;;;;44.70;23.23;;;2.90;99.90;;;;;;5055650;28;20233;-61
2021/01/02 04:13:07;;;;;;;44.47;24.83;;;3.00;99.90;;;;;;5052218;28;20569;-62
2021/01/02 04:15:34;;;;;;;47.83;23.93;;;2.90;99.90;;;;;;5065026;28;20220;-63
2021/01/02 04:17:59;;;;;;;43.17;23.87;;;2.90;99.90;;;;;;5071973;28;20185;-63
2021/01/02 04:20:26;;;;;;;40.60;22.83;;;2.90;99.90;;;;;;5060006;28;20182;-63
2021/01/02 04:22:52;;;;;;;46.50;23.03;;;3.00;99.90;;;;;;5052076;28;20193;-63
2021/01/02 04:25:18;;;;;;;42.10;22.10;;;3.00;99.90;;;;;;5053214;28;20179;-63
2021/01/02 04:27:44;;;;;;;41.13;22.60;;;3.00;99.90;;;;;;5051969;28;20650;-64
2021/01/02 04:30:09;;;;;;;46.70;23.67;;;3.00;99.90;;;;;;5061411;28;20261;-63
2021/01/02 04:32:35;;;;;;;38.57;22.07;;;3.00;99.90;;;;;;5071654;28;20206;-64
2021/01/02 04:35:01;;;;;;;38.77;22.67;;;3.00;99.90;;;;;;5063196;28;20179;-63
2021/01/02 04:37:28;;;;;;;43.67;22.17;;;3.00;99.90;;;;;;5051865;28;20198;-63
2021/01/02 04:39:54;;;;;;;43.97;22.80;;;2.90;99.90;;;;;;5058407;28;20333;-65
2021/01/02 04:42:22;;;;;;;48.00;23.57;;;3.00;99.90;;;;;;5070655;28;20583;-63
2021/01/02 04:44:49;;;;;;;42.87;23.30;;;3.10;99.90;;;;;;5065979;28;20203;-64
2021/01/02 04:47:17;;;;;;;42.83;24.20;;;2.90;99.90;;;;;;5079807;22;20574;-65
2021/01/02 04:49:43;;;;;;;48.67;24.23;;;3.00;99.90;;;;;;5071562;28;20198;-65
2021/01/02 04:52:09;;;;;;;44.57;24.30;;;3.10;99.90;;;;;;5071112;28;20240;-64
2021/01/02 04:54:40;;;;;;;48.57;24.83;;;3.10;99.90;;;;;;5071678;28;20185;-65
2021/01/02 04:57:09;;;;;;;44.27;23.47;;;3.10;99.90;;;;;;5070410;28;20700;-64
2021/01/02 04:59:38;;;;;;;45.33;24.33;;;3.10;99.90;;;;;;5051605;28;20171;-65
2021/01/02 05:02:07;;;;;;;40.87;22.93;;;3.10;99.90;;;;;;5050257;28;20167;-64
2021/01/02 05:04:32;;;;;;;39.00;23.43;;;3.10;99.90;;;;;;5031715;28;20175;-64
2021/01/02 05:06:58;;;;;;;42.67;23.83;;;3.10;99.90;;;;;;5031636;28;20699;-64
2021/01/02 05:09:23;;;;;;;43.73;24.17;;;3.10;99.90;;;;;;5069497;28;20247;-65
2021/01/02 05:11:49;;;;;;;43.40;24.47;;;3.10;99.90;;;;;;5071403;28;20236;-65
2021/01/02 05:14:14;;;;;;;42.67;22.33;;;3.00;99.90;;;;;;5054166;28;20560;-65
2021/01/02 05:16:41;;;;;;;41.07;21.87;;;3.10;99.90;;;;;;5051215;28;20232;-65
2021/01/02 05:19:15;;;;;;;38.27;22.60;;;3.10;99.90;;;;;;5066614;28;20631;-65
2021/01/02 05:21:46;;;;;;;42.10;22.60;;;3.20;99.90;;;;;;5056025;28;20595;-65
2021/01/02 05:24:19;;;;;;;45.83;23.57;;;3.20;99.90;;;;;;5051283;28;20181;-65
2021/01/02 05:26:56;;;;;;;39.30;22.03;;;3.20;99.90;;;;;;5064807;28;20209;-65
2021/01/02 05:29:22;;;;;;;37.87;21.80;;;3.20;99.90;;;;;;5071311;28;20211;-65
2021/01/02 05:31:50;;;;;;;45.70;23.10;;;3.20;99.90;;;;;;5056174;28;20285;-65
2021/01/02 05:34:19;;;;;;;37.43;20.87;;;3.20;99.90;;;;;;5051173;28;20167;-65
2021/01/02 05:36:45;;;;;;;40.53;22.17;;;3.30;99.90;;;;;;5059802;28;20205;-65
2021/01/02 05:39:16;;;;;;;42.17;22.80;;;3.20;99.90;;;;;;5071105;28;20162;-65
2021/01/02 05:41:52;;;;;;;47.07;23.47;;;3.20;99.90;;;;;;5059113;28;20202;-64
2021/01/02 05:44:18;;;;;;;47.20;23.03;;;3.20;99.90;;;;;;5051111;28;20185;-65
2021/01/02 05:46:53;;;;;;;42.47;22.17;;;3.20;99.90;;;;;;5062354;28;20260;-65
2021/01/02 05:49:38;;;;;;;37.63;21.17;;;3.20;99.90;;;;;;5060961;28;20220;-65
2021/01/02 05:52:06;;;;;;;40.80;21.90;;;3.10;99.90;;;;;;5050751;28;20570;-65
2021/01/02 05:54:33;;;;;;;43.07;22.27;;;3.10;99.90;;;;;;5062207;28;20781;-64
2021/01/02 05:57:01;;;;;;;40.33;23.13;;;3.10;99.90;;;;;;5071014;28;20194;-65
2021/01/02 05:59:37;;;;;;;35.53;21.33;;;3.10;99.90;;;;;;5053703;28;20175;-65
2021/01/02 06:02:26;;;;;;;34.30;21.13;;;3.10;99.90;;;;;;5050746;28;20167;-64
2021/01/02 06:05:04;;;;;;;33.33;20.07;;;3.10;99.90;;;;;;5056248;28;20209;-64
2021/01/02 06:07:35;;;;;;;38.47;21.33;;;3.20;99.90;;;;;;5051012;28;20533;-65
2021/01/02 06:10:01;;;;;;;36.50;19.37;;;3.20;99.90;;;;;;5032184;28;20174;-65
2021/01/02 06:12:29;;;;;;;37.87;21.33;;;3.20;99.90;;;;;;5030969;28;20259;-64
2021/01/02 06:14:57;;;;;;;37.07;20.20;;;3.20;99.90;;;;;;5073283;28;20202;-65
2021/01/02 06:17:29;;;;;;;36.60;19.80;;;3.10;99.90;;;;;;5064314;28;20202;-65
2021/01/02 06:19:55;;;;;;;34.33;17.97;;;3.20;99.90;;;;;;5054379;28;20546;-65
2021/01/02 06:22:21;;;;;;;33.90;18.70;;;3.20;99.90;;;;;;5062738;28;20261;-65
2021/01/02 06:24:50;;;;;;;31.93;19.10;;;3.10;99.90;;;;;;5074312;28;20208;-65
2021/01/02 06:27:17;;;;;;;29.40;18.70;;;3.20;99.90;;;;;;5066133;28;20566;-65
2021/01/02 06:29:48;;;;;;;31.97;18.03;;;3.20;99.90;;;;;;5054534;28;20167;-65
2021/01/02 06:32:14;;;;;;;36.27;19.40;;;3.20;99.90;;;;;;5061016;28;20255;-65
2021/01/02 06:34:40;;;;;;;30.23;18.77;;;3.20;99.90;;;;;;5074484;28;20170;-65
2021/01/02 06:37:05;;;;;;;31.27;18.53;;;3.20;99.90;;;;;;5068252;28;20207;-65
2021/01/02 06:39:32;;;;;;;32.87;18.77;;;3.20;99.90;;;;;;5054184;28;20246;-65
2021/01/02 06:41:58;;;;;;;29.83;18.13;;;3.20;99.90;;;;;;5057700;28;20595;-65
2021/01/02 06:44:44;;;;;;;30.53;18.63;;;3.10;99.90;;;;;;5072686;28;20205;-65
2021/01/02 06:47:20;;;;;;;30.70;19.43;;;3.10;99.90;;;;;;5053906;28;20214;-65
2021/01/02 06:49:47;;;;;;;28.90;18.33;;;3.10;99.90;;;;;;5054851;28;20181;-65
2021/01/02 06:52:28;;;;;;;33.90;17.27;;;3.10;99.90;;;;;;5053485;28;20202;-65
2021/01/02 06:55:14;;;;;;;31.50;19.30;;;3.20;99.90;;;;;;5053885;28;20611;-65
2021/01/02 06:57:40;;;;;;;27.90;17.27;;;3.30;99.90;;;;;;5052392;28;20256;-66
2021/01/02 07:00:27;;;;;;;27.20;18.10;;;3.30;99.90;;;;;;5061261;28;20643;-66
2021/01/02 07:02:56;;;;;;;30.70;18.03;;;3.20;99.90;;;;;;5068406;28;20174;-65
2021/01/02 07:05:47;;;;;;;28.80;17.50;;;3.20;99.90;;;;;;5053617;28;20539;-65
2021/01/02 07:08:47;;;;;;;29.77;18.60;;;3.20;99.90;;;;;;5059901;28;20212;-65
2021/01/02 07:11:23;;;;;;;27.90;17.50;;;3.20;99.90;;;;;;5073145;28;20213;-65
2021/01/02 07:14:11;;;;;;;33.93;19.23;;;3.20;99.90;;;;;;5060932;28;20170;-65
2021/01/02 07:16:45;;;;;;;30.03;17.83;;;3.20;99.90;;;;;;5053130;28;20163;-65
2021/01/02 07:19:32;;;;;;;31.53;18.50;;;3.10;99.90;;;;;;5067416;28;20580;-65
2021/01/02 07:22:16;;;;;;;31.20;18.53;;;3.10;99.90;;;;;;5072194;28;20564;-64
2021/01/02 07:25:00;;;;;;;27.57;16.80;;;3.10;99.90;;;;;;5052329;28;20713;-65
2021/01/02 07:27:37;;;;;;;21.33;15.03;;;3.10;99.90;;;;;;5053782;28;20222;-64
2021/01/02 07:30:10;;;;;;;28.87;17.23;;;3.10;99.90;;;;;;5032998;28;20202;-65
2021/01/02 07:32:44;;;;;;;30.47;16.30;;;3.10;99.90;;;;;;5032903;28;20203;-65
2021/01/02 07:35:15;;;;;;;28.67;16.23;;;3.10;99.90;;;;;;5071252;28;20177;-65
2021/01/02 07:37:42;;;;;;;28.30;18.33;;;3.10;99.90;;;;;;5072860;28;20185;-65
2021/01/02 07:40:13;;;;;;;24.13;15.87;;;3.20;99.90;;;;;;5055994;28;20201;-65
2021/01/02 07:42:41;;;;;;;29.27;16.57;;;3.20;99.90;;;;;;5055978;28;20179;-65
2021/01/02 07:45:09;;;;;;;30.40;17.07;;;3.20;99.90;;;;;;5052679;28;20228;-65
2021/01/02 07:47:35;;;;;;;27.40;16.97;;;3.20;99.90;;;;;;5052541;28;20297;-65
2021/01/02 07:50:08;;;;;;;25.87;16.17;;;3.30;99.90;;;;;;5052504;28;20649;-65
2021/01/02 07:52:34;;;;;;;25.90;16.90;;;3.30;99.90;;;;;;5057577;28;20198;-65
2021/01/02 07:55:08;;;;;;;34.10;17.90;;;3.30;99.90;;;;;;5066132;28;20216;-65
2021/01/02 07:57:34;;;;;;;31.60;17.23;;;3.40;99.90;;;;;;5065949;28;20191;-65
2021/01/02 08:00:00;;;;;;;25.10;16.37;;;3.40;99.90;;;;;;5052061;28;20682;-65
2021/01/02 08:02:26;;;;;;;25.53;16.20;;;3.40;99.90;;;;;;5054128;28;20187;-65
2021/01/02 08:04:53;;;;;;;30.57;17.17;;;3.50;99.90;;;;;;5058888;28;20253;-65
2021/01/02 08:07:19;;;;;;;28.00;16.87;;;3.50;99.90;;;;;;5062800;28;20228;-65
2021/01/02 08:09:46;;;;;;;25.90;16.50;;;3.50;99.90;;;;;;5066045;28;20220;-64
2021/01/02 08:12:13;;;;;;;25.90;16.87;;;3.50;99.90;;;;;;5032384;28;20206;-65
2021/01/02 08:14:46;;;;;;;27.20;15.97;;;3.60;99.90;;;;;;5054359;28;20189;-64
2021/01/02 08:17:18;;;;;;;23.87;15.47;;;3.60;99.90;;;;;;5062340;28;20273;-65
2021/01/02 08:19:46;;;;;;;22.20;15.13;;;3.60;99.90;;;;;;5066773;28;20183;-65
2021/01/02 08:22:36;;;;;;;27.23;15.83;;;3.70;99.90;;;;;;5070155;28;20197;-65
2021/01/02 08:25:09;;;;;;;23.43;14.43;;;3.70;99.90;;;;;;5063511;28;20190;-65
2021/01/02 08:27:35;;;;;;;25.87;15.53;;;3.80;99.90;;;;;;5057378;28;20352;-64
2021/01/02 08:30:05;;;;;;;23.90;16.30;;;3.80;99.90;;;;;;5071525;28;20173;-64
2021/01/02 08:32:34;;;;;;;27.60;16.23;;;3.80;99.90;;;;;;5057125;28;20289;-64
2021/01/02 08:35:00;;;;;;;25.67;16.53;;;3.80;99.90;;;;;;5056640;28;20166;-65
2021/01/02 08:37:26;;;;;;;23.93;15.10;;;3.80;99.90;;;;;;5051442;28;20218;-65
2021/01/02 08:40:15;;;;;;;23.47;15.23;;;3.80;99.90;;;;;;5061610;28;20241;-65
2021/01/02 08:42:43;;;;;;;22.37;14.67;;;3.80;99.90;;;;;;5031686;28;20195;-65
2021/01/02 08:45:10;;;;;;;23.23;14.77;;;3.80;99.90;;;;;;5059181;28;20209;-64
2021/01/02 08:47:37;;;;;;;25.07;15.80;;;3.80;99.90;;;;;;5051422;28;20215;-65
2021/01/02 08:50:14;;;;;;;23.27;14.77;;;3.90;99.90;;;;;;5051099;28;20636;-65
2021/01/02 08:52:43;;;;;;;25.50;17.30;;;3.90;99.90;;;;;;5051584;28;20214;-65
2021/01/02 08:55:12;;;;;;;22.93;14.50;;;3.90;99.90;;;;;;5051399;28;20167;-65
2021/01/02 08:57:48;;;;;;;27.90;15.73;;;3.90;99.90;;;;;;5052539;28;20226;-65
2021/01/02 09:00:21;;;;;;;25.30;16.07;;;3.90;99.90;;;;;;5060977;28;20186;-65
2021/01/02 09:03:07;;;;;;;23.97;15.10;;;4.00;99.90;;;;;;5057571;28;20175;-65
2021/01/02 09:05:40;;;;;;;23.00;15.60;;;4.00;99.90;;;;;;5064472;28;20279;-65
2021/01/02 09:08:06;;;;;;;22.90;14.73;;;4.00;99.90;;;;;;5069995;28;20738;-65
2021/01/02 09:10:38;;;;;;;21.87;14.17;;;4.00;99.90;;;;;;5052604;28;20185;-65
2021/01/02 09:13:06;;;;;;;21.83;13.87;;;4.10;99.90;;;;;;5062098;28;20265;-64
2021/01/02 09:15:50;;;;;;;23.70;15.33;;;4.10;99.90;;;;;;5071643;28;20170;-65
2021/01/02 09:18:18;;;;;;;25.30;15.27;;;4.10;99.90;;;;;;5058677;28;20205;-64
2021/01/02 09:20:44;;;;;;;25.60;15.20;;;4.10;99.90;;;;;;5058680;28;20177;-64
2021/01/02 09:23:10;;;;;;;24.47;15.37;;;4.10;99.90;;;;;;5070802;28;20170;-65
2021/01/02 09:25:38;;;;;;;25.73;14.97;;;4.00;99.90;;;;;;5064013;28;20261;-65
2021/01/02 09:28:42;;;;;;;23.10;14.40;;;4.10;99.90;;;;;;5060180;28;20194;-65
2021/01/02 09:31:08;;;;;;;24.00;15.67;;;4.10;99.90;;;;;;5047118;28;20202;-64
2021/01/02 09:33:34;;;;;;;22.03;14.77;;;4.20;99.90;;;;;;5069410;28;20182;-64
2021/01/02 09:35:59;;;;;;;20.80;14.27;;;4.20;99.90;;;;;;5061727;28;20179;-64
2021/01/02 09:38:25;;;;;;;23.47;15.57;;;4.30;99.90;;;;;;5057647;28;20417;-64
2021/01/02 09:40:50;;;;;;;28.43;14.47;;;4.40;99.90;;;;;;5070804;28;20178;-65
2021/01/02 09:43:17;;;;;;;28.40;15.00;;;4.40;99.90;;;;;;5068713;28;20166;-64
2021/01/02 09:45:43;;;;;;;24.70;14.63;;;4.50;99.90;;;;;;5051080;28;20232;-65
2021/01/02 09:48:10;;;;;;;24.23;14.30;;;4.50;99.90;;;;;;5052126;28;20582;-65
2021/01/02 09:50:36;;;;;;;23.40;14.60;;;4.60;99.90;;;;;;5054724;28;20189;-65
2021/01/02 09:53:05;;;;;;;22.63;14.07;;;4.60;99.90;;;;;;5054473;28;20206;-64
2021/01/02 09:55:31;;;;;;;27.30;14.83;;;4.60;99.90;;;;;;5056406;28;20183;-65
2021/01/02 09:57:57;;;;;;;26.53;14.20;;;4.60;99.90;;;;;;5059052;28;20197;-65
2021/01/02 10:00:22;;;;;;;27.33;15.53;;;4.70;99.90;;;;;;5072061;28;20178;-65
2021/01/02 10:02:48;;;;;;;24.07;14.77;;;4.70;99.90;;;;;;5054891;28;20248;-65
2021/01/02 10:05:16;;;;;;;23.90;16.07;;;4.80;99.90;;;;;;5070963;28;20770;-65
2021/01/02 10:07:42;;;;;;;23.10;14.03;;;4.80;99.90;;;;;;5074508;28;20230;-65
2021/01/02 10:10:08;;;;;;;21.50;14.20;;;5.00;99.90;;;;;;5058957;28;20182;-65
2021/01/02 10:12:34;;;;;;;22.03;13.33;;;5.10;99.90;;;;;;5054449;28;20195;-65
2021/01/02 10:14:59;;;;;;;20.17;13.43;;;5.10;99.90;;;;;;5067391;28;20200;-65
2021/01/02 10:17:27;;;;;;;17.63;12.70;;;5.20;99.90;;;;;;5074413;28;20755;-65
2021/01/02 10:19:54;;;;;;;24.57;14.50;;;5.30;99.90;;;;;;5064073;28;20179;-65
2021/01/02 10:22:20;;;;;;;21.60;13.67;;;5.40;99.90;;;;;;5074381;28;20581;-65
2021/01/02 10:24:47;;;;;;;23.33;13.10;;;5.50;99.90;;;;;;5072462;28;20671;-65
2021/01/02 10:27:14;;;;;;;24.67;13.13;;;5.60;99.90;;;;;;5074221;28;20204;-65
2021/01/02 10:29:47;;;;;;;21.10;12.23;;;5.80;99.90;;;;;;5061635;28;20175;-64
2021/01/02 10:32:15;;;;;;;21.67;14.47;;;6.00;99.90;;;;;;5069933;28;20675;-65
2021/01/02 10:34:42;;;;;;;20.43;12.67;;;6.10;99.90;;;;;;5062182;28;20174;-64
2021/01/02 10:37:09;;;;;;;20.40;12.87;;;6.00;99.90;;;;;;5053856;28;20557;-65
2021/01/02 10:39:42;;;;;;;17.67;11.27;;;6.10;99.90;;;;;;5064526;28;20170;-65
2021/01/02 10:42:09;;;;;;;19.17;12.67;;;6.20;99.90;;;;;;5073664;28;20437;-66
2021/01/02 10:44:35;;;;;;;18.47;10.60;;;6.20;99.90;;;;;;5063512;28;20679;-65
2021/01/02 10:47:00;;;;;;;17.37;11.20;;;6.20;99.90;;;;;;5085402;22;20234;-66
2021/01/02 10:49:26;;;;;;;18.67;11.47;;;6.30;99.90;;;;;;5014302;28;20222;-65
2021/01/02 10:51:53;;;;;;;18.43;11.90;;;6.30;99.90;;;;;;5013413;28;20209;-65
2021/01/02 10:54:20;;;;;;;18.33;12.10;;;6.20;99.90;;;;;;5013972;28;20225;-66
2021/01/02 10:56:47;;;;;;;18.90;12.40;;;6.20;99.90;;;;;;5013711;28;20259;-66
2021/01/02 10:59:13;;;;;;;17.17;11.77;;;6.20;99.90;;;;;;5013413;28;20184;-65
2021/01/02 11:01:44;;;;;;;19.30;11.70;;;6.10;99.90;;;;;;5013562;28;20176;-66
2021/01/02 11:04:11;;;;;;;19.37;12.33;;;6.20;99.90;;;;;;5013872;28;20173;-66
2021/01/02 11:06:41;;;;;;;18.00;12.63;;;6.30;99.90;;;;;;5013630;28;20644;-66
2021/01/02 11:09:08;;;;;;;18.53;12.10;;;6.40;99.90;;;;;;5013297;28;20200;-65
2021/01/02 11:11:34;;;;;;;15.77;10.83;;;6.50;99.90;;;;;;5013271;28;20215;-65
2021/01/02 11:14:00;;;;;;;17.07;11.60;;;6.60;99.90;;;;;;5013327;28;20176;-65
2021/01/02 11:16:34;;;;;;;17.70;12.47;;;6.60;99.90;;;;;;5013603;28;20172;-65
2021/01/02 11:19:00;;;;;;;18.07;12.27;;;6.60;99.90;;;;;;5013014;28;20246;-65
2021/01/02 11:21:26;;;;;;;16.30;10.80;;;6.70;99.90;;;;;;5012933;28;20215;-65
2021/01/02 11:23:51;;;;;;;16.47;11.77;;;6.70;99.90;;;;;;5013431;28;20187;-64
2021/01/02 11:26:17;;;;;;;19.10;11.73;;;6.80;99.90;;;;;;5013698;28;20184;-65
2021/01/02 11:28:43;;;;;;;23.23;14.80;;;6.70;99.90;;;;;;5011824;28;20294;-65
2021/01/02 11:31:09;;;;;;;19.43;12.50;;;6.70;99.90;;;;;;5011798;28;20255;-65
2021/01/02 11:33:35;;;;;;;19.83;13.20;;;6.50;99.90;;;;;;5013748;28;20176;-65
2021/01/02 11:36:01;;;;;;;19.20;13.20;;;6.50;99.90;;;;;;5011101;28;20184;-65
2021/01/02 11:38:27;;;;;;;17.63;11.93;;;6.50;99.90;;;;;;5012514;28;20200;-66
2021/01/02 11:40:53;;;;;;;16.20;11.00;;;6.60;99.90;;;;;;5012635;28;20184;-65
2021/01/02 11:43:19;;;;;;;15.80;11.17;;;6.60;99.90;;;;;;5012779;28;20263;-65
2021/01/02 11:45:47;;;;;;;15.83;10.73;;;6.60;99.90;;;;;;5013113;28;20168;-65
2021/01/02 11:48:13;;;;;;;15.60;10.90;;;6.60;99.90;;;;;;5012414;28;20692;-65
2021/01/02 11:50:40;;;;;;;17.80;11.90;;;6.60;99.90;;;;;;5012661;28;20168;-66
2021/01/02 11:53:07;;;;;;;18.73;11.93;;;6.50;99.90;;;;;;5012438;28;20673;-65
2021/01/02 11:55:32;;;;;;;21.77;12.40;;;6.60;99.90;;;;;;5013093;28;20691;-66
2021/01/02 11:57:59;;;;;;;17.30;11.10;;;6.70;99.90;;;;;;5012400;28;20286;-65
2021/01/02 12:00:25;;;;;;;17.40;10.93;;;6.70;99.90;;;;;;5012384;28;20214;-65
2021/01/02 12:02:50;;;;;;;17.37;11.43;;;6.80;99.90;;;;;;5012623;28;20649;-65
2021/01/02 12:05:16;;;;;;;19.33;12.60;;;6.80;99.90;;;;;;5012943;28;20218;-65
2021/01/02 12:07:42;;;;;;;19.43;11.97;;;6.70;99.90;;;;;;5011224;28;20212;-66
2021/01/02 12:10:08;;;;;;;18.90;11.90;;;6.80;99.90;;;;;;5011917;28;20183;-65
2021/01/02 12:12:33;;;;;;;20.33;12.30;;;6.90;99.90;;;;;;5012087;28;20204;-65
2021/01/02 12:14:59;;;;;;;18.87;11.97;;;6.90;99.90;;;;;;5012737;28;20226;-66
2021/01/02 12:17:26;;;;;;;32.73;18.53;;;6.90;99.90;;;;;;5012535;28;20192;-65
2021/01/02 12:19:51;;;;;;;18.90;11.47;;;6.80;99.90;;;;;;5012291;28;20227;-63
2021/01/02 12:22:17;;;;;;;18.50;11.87;;;6.60;99.90;;;;;;5012074;28;20654;-66
2021/01/02 12:24:43;;;;;;;17.00;11.37;;;6.60;99.90;;;;;;5012139;28;20183;-64
2021/01/02 12:27:10;;;;;;;17.37;12.20;;;6.70;99.90;;;;;;5011994;28;20204;-64
2021/01/02 12:29:37;;;;;;;17.37;11.90;;;6.70;99.90;;;;;;5012209;28;20176;-65
2021/01/02 12:32:06;;;;;;;19.67;12.90;;;6.90;99.90;;;;;;5011509;28;20208;-64
2021/01/02 12:34:35;;;;;;;21.07;12.60;;;6.80;99.90;;;;;;5012166;28;20219;-66
2021/01/02 12:37:05;;;;;;;20.23;11.93;;;6.70;99.90;;;;;;5011529;28;20191;-65
2021/01/02 12:39:32;;;;;;;18.83;11.40;;;6.70;99.90;;;;;;5012372;28;20172;-65
2021/01/02 12:41:59;;;;;;;20.30;12.00;;;6.70;99.90;;;;;;5011440;28;20538;-65
2021/01/02 12:44:25;;;;;;;20.63;11.37;;;6.70;99.90;;;;;;5011693;28;20184;-66
2021/01/02 12:46:59;;;;;;;21.23;13.00;;;6.80;99.90;;;;;;5011766;28;20227;-66
2021/01/02 12:49:28;;;;;;;20.93;12.10;;;6.60;99.90;;;;;;5011590;28;20263;-66
2021/01/02 12:51:59;;;;;;;22.17;12.53;;;6.70;99.90;;;;;;5011656;28;20207;-66